Terminal Aerodrome Forecast
Issued by NWS Louisville, KY

Home | Current Version | Previous Version | Text Only | Print | Product List | Glossary On
Versions: 1 2 3 4 5 6 7 8 9 10 11 12 13 14 15 16 17 18 19 20 21 22
000
FTUS43 KLMK 262103 AAA
TAFBWG
TAF AMD
KBWG 262103Z 2621/2718 VRB04KT P6SM SCT050
     FM270000 00000KT P6SM SCT250
     FM271400 22005KT P6SM SCT040=

USA.gov is the U.S. government's official web portal to all federal, state and local government web resources and services.